Time;durP1;ratioP1;P1;durP2;ratioP2;P2;SDS_P1;SDS_P2;PMS_P1;PMS_P2;Temp;Humidity;BMP_temperature;BMP_pressure;BME280_temperature;BME280_humidity;BME280_pressure;Samples;Min_cycle;Max_cycle;Signal;HPM_P1;HPM_P2
2022/04/27 00:00:18;;;;;;;4.47;2.67;;;;;;;;;;5040547;28;20025;-77
2022/04/27 00:02:44;;;;;;;11.30;3.20;;;;;;;;;;5040219;28;20113;-77
2022/04/27 00:05:10;;;;;;;5.05;2.40;;;;;;;;;;5041662;28;20056;-77
2022/04/27 00:07:36;;;;;;;5.15;2.58;;;;;;;;;;5040234;28;20033;-77
2022/04/27 00:10:03;;;;;;;8.88;3.03;;;;;;;;;;5036494;28;20081;-76
2022/04/27 00:12:29;;;;;;;6.60;3.20;;;;;;;;;;5038093;28;20020;-76
2022/04/27 00:14:55;;;;;;;7.30;2.53;;;;;;;;;;5041026;28;20037;-76
2022/04/27 00:17:21;;;;;;;5.22;2.75;;;;;;;;;;5036952;28;20029;-77
2022/04/27 00:19:47;;;;;;;7.63;3.38;;;;;;;;;;5041372;28;20053;-77
2022/04/27 00:22:14;;;;;;;4.38;2.55;;;;;;;;;;5041771;28;20515;-76
2022/04/27 00:24:39;;;;;;;5.32;2.63;;;;;;;;;;5037589;28;20090;-76
2022/04/27 00:27:06;;;;;;;5.82;3.00;;;;;;;;;;5041333;28;20029;-77
2022/04/27 00:29:32;;;;;;;5.18;2.28;;;;;;;;;;5041773;28;20531;-77
2022/04/27 00:31:58;;;;;;;6.43;2.58;;;;;;;;;;5037326;28;20035;-76
2022/04/27 00:34:24;;;;;;;4.38;2.08;;;;;;;;;;5041414;28;20052;-77
2022/04/27 00:36:50;;;;;;;5.43;2.50;;;;;;;;;;5046310;28;20028;-77
2022/04/27 00:39:17;;;;;;;8.05;2.78;;;;;;;;;;5038648;28;20026;-77
2022/04/27 00:41:59;;;;;;;6.97;3.20;;;;;;;;;;5043337;28;20096;-77
2022/04/27 00:44:33;;;;;;;5.18;2.30;;;;;;;;;;5046593;28;20504;-77
2022/04/27 00:47:03;;;;;;;4.72;2.33;;;;;;;;;;5041077;28;20836;-77
2022/04/27 00:49:29;;;;;;;5.68;2.45;;;;;;;;;;5045528;28;20504;-77
2022/04/27 00:51:55;;;;;;;3.80;2.08;;;;;;;;;;5044588;28;20541;-76
2022/04/27 00:54:22;;;;;;;4.68;2.60;;;;;;;;;;5045436;28;20037;-77
2022/04/27 00:56:51;;;;;;;4.72;2.80;;;;;;;;;;5044395;28;20071;-77
2022/04/27 00:59:17;;;;;;;9.32;3.67;;;;;;;;;;5047257;28;20025;-77
2022/04/27 01:01:43;;;;;;;5.07;2.50;;;;;;;;;;5043336;28;20009;-77
2022/04/27 01:04:09;;;;;;;3.38;1.95;;;;;;;;;;5046773;28;20036;-77
2022/04/27 01:06:36;;;;;;;5.50;2.20;;;;;;;;;;5045496;28;20067;-77
2022/04/27 01:09:03;;;;;;;4.80;2.25;;;;;;;;;;5042084;28;20033;-76
2022/04/27 01:11:30;;;;;;;4.13;2.30;;;;;;;;;;5043415;28;20113;-77
2022/04/27 01:13:56;;;;;;;4.00;2.03;;;;;;;;;;5042870;28;20102;-77
2022/04/27 01:16:22;;;;;;;6.88;2.70;;;;;;;;;;5045372;28;20528;-76
2022/04/27 01:18:50;;;;;;;6.75;2.30;;;;;;;;;;5038823;28;20055;-77
2022/04/27 01:21:16;;;;;;;5.55;2.20;;;;;;;;;;5045988;28;20025;-76
2022/04/27 01:23:42;;;;;;;4.70;2.45;;;;;;;;;;5040335;28;20396;-77
2022/04/27 01:26:08;;;;;;;5.15;3.13;;;;;;;;;;5045173;28;20709;-77
2022/04/27 01:28:36;;;;;;;5.75;2.53;;;8.70;99.90;;;;;;5045644;28;20025;-77
2022/04/27 01:31:09;;;;;;;4.13;2.30;;;;;;;;;;5040417;28;20040;-77
2022/04/27 01:33:35;;;;;;;6.80;3.33;;;;;;;;;;5044465;28;20478;-77
2022/04/27 01:36:02;;;;;;;5.55;2.42;;;;;;;;;;5041812;28;20029;-77
2022/04/27 01:38:33;;;;;;;13.02;4.43;;;;;;;;;;5046594;28;20489;-77
2022/04/27 01:40:59;;;;;;;12.90;4.07;;;;;;;;;;5042696;28;20048;-77
2022/04/27 01:43:25;;;;;;;20.52;4.40;;;;;;;;;;5043656;28;20033;-77
2022/04/27 01:45:51;;;;;;;10.10;3.92;;;;;;;;;;5042370;28;20044;-77
2022/04/27 01:48:17;;;;;;;5.40;2.90;;;;;;;;;;5047509;28;20387;-77
2022/04/27 01:50:43;;;;;;;5.88;2.75;;;;;;;;;;5045547;28;20398;-77
2022/04/27 01:55:54;;;;;;;6.47;2.70;;;;;;;;;;5035724;28;21571;-76
2022/04/27 01:58:20;;;;;;;6.13;2.63;;;;;;;;;;5038037;28;20029;-76
2022/04/27 02:00:47;;;;;;;3.63;2.03;;;;;;;;;;5044011;28;20695;-77
2022/04/27 02:03:13;;;;;;;10.25;3.03;;;;;;;;;;5045176;28;20363;-77
2022/04/27 02:05:40;;;;;;;7.75;2.35;;;;;;;;;;5045180;28;20032;-77
2022/04/27 02:08:06;;;;;;;5.32;2.67;;;;;;;;;;5041993;28;20032;-77
2022/04/27 02:10:32;;;;;;;8.50;3.65;;;;;;;;;;5045780;28;20108;-77
2022/04/27 02:12:58;;;;;;;6.22;3.15;;;;;;;;;;5045405;28;20036;-77
2022/04/27 02:15:24;;;;;;;7.95;3.13;;;;;;;;;;5043161;28;20040;-77
2022/04/27 02:17:50;;;;;;;10.02;4.63;;;;;;;;;;5040991;28;20033;-76
2022/04/27 02:20:22;;;;;;;10.75;4.07;;;;;;;;;;5042203;28;20111;-77
2022/04/27 02:22:48;;;;;;;7.53;3.17;;;;;;;;;;5040680;28;20484;-77
2022/04/27 02:25:14;;;;;;;8.07;3.35;;;;;;;;;;5046612;28;20118;-77
2022/04/27 02:27:41;;;;;;;5.50;2.58;;;;;;;;;;5041033;28;20051;-77
2022/04/27 02:30:07;;;;;;;5.80;2.58;;;;;;;;;;5039481;28;20033;-77
2022/04/27 02:32:33;;;;;;;8.52;4.30;;;;;;;;;;5043740;28;20025;-77
2022/04/27 02:34:59;;;;;;;6.82;3.17;;;;;;;;;;5043287;28;20436;-77
2022/04/27 02:37:25;;;;;;;9.70;5.00;;;;;;;;;;5040096;28;20257;-77
2022/04/27 02:39:51;;;;;;;9.93;3.67;;;;;;;;;;5045331;28;20035;-77
2022/04/27 02:42:17;;;;;;;6.28;3.60;;;;;;;;;;5045938;28;20037;-77
2022/04/27 02:44:44;;;;;;;5.55;2.85;;;;;;;;;;5043940;28;20549;-77
2022/04/27 02:47:09;;;;;;;5.85;2.70;;;;;;;;;;5043658;28;20112;-77
2022/04/27 02:52:21;;;;;;;7.38;3.40;;;;;;;;;;5038116;28;20046;-77
2022/04/27 02:54:47;;;;;;;12.27;4.45;;;;;;;;;;5046286;28;20060;-77
2022/04/27 02:57:12;;;;;;;8.02;3.38;;;8.50;99.90;;;;;;5043023;28;20482;-77
2022/04/27 02:59:38;;;;;;;7.57;3.33;;;;;;;;;;5043616;28;20037;-77
2022/04/27 03:02:04;;;;;;;5.30;2.85;;;;;;;;;;5040746;28;20025;-76
2022/04/27 03:04:30;;;;;;;5.72;3.22;;;;;;;;;;5041382;28;20159;-76
2022/04/27 03:06:56;;;;;;;7.05;2.58;;;;;;;;;;5042387;28;20472;-76
2022/04/27 03:09:23;;;;;;;9.52;4.00;;;;;;;;;;5041949;28;20413;-76
2022/04/27 03:11:49;;;;;;;5.45;2.67;;;8.70;99.90;;;;;;5042600;28;20535;-76
2022/04/27 03:14:15;;;;;;;5.40;2.47;;;;;;;;;;5041946;28;20041;-76
2022/04/27 03:16:41;;;;;;;6.65;3.38;;;;;;;;;;5041553;28;20521;-76
2022/04/27 03:19:07;;;;;;;8.48;3.35;;;;;;;;;;5048279;28;20032;-77
2022/04/27 03:21:33;;;;;;;4.82;2.38;;;;;;;;;;5044557;28;20078;-76
2022/04/27 03:23:59;;;;;;;8.05;3.83;;;9.90;99.90;;;;;;5042744;28;20497;-76
2022/04/27 03:26:24;;;;;;;5.55;3.05;;;8.30;99.90;;;;;;5042500;28;20388;-76
2022/04/27 03:28:50;;;;;;;5.82;2.83;;;;;;;;;;5046673;28;20029;-76
2022/04/27 03:31:17;;;;;;;5.40;2.90;;;;;;;;;;5040825;28;20039;-78
2022/04/27 03:33:43;;;;;;;8.43;3.83;;;;;;;;;;5044533;28;20021;-77
2022/04/27 03:36:09;;;;;;;8.40;2.97;;;;;;;;;;5038878;28;20029;-77
2022/04/27 03:38:36;;;;;;;6.75;3.40;;;;;;;;;;5042452;28;20100;-77
2022/04/27 03:41:02;;;;;;;7.03;3.95;;;;;;;;;;5041928;28;20079;-77
2022/04/27 03:43:28;;;;;;;6.55;3.35;;;;;;;;;;5044201;28;20025;-77
2022/04/27 03:45:53;;;;;;;5.90;2.40;;;;;;;;;;5048091;28;20021;-77
2022/04/27 03:48:19;;;;;;;9.13;3.58;;;;;;;;;;5045384;28;20040;-77
2022/04/27 03:50:45;;;;;;;7.65;3.92;;;;;;;;;;5044744;28;20037;-77
2022/04/27 03:53:11;;;;;;;7.93;3.05;;;;;;;;;;5043157;28;20125;-77
2022/04/27 03:55:37;;;;;;;7.47;4.10;;;;;;;;;;5047478;28;20037;-77
2022/04/27 03:58:04;;;;;;;7.65;4.07;;;;;;;;;;5044771;28;20493;-77
2022/04/27 04:00:30;;;;;;;8.48;3.35;;;;;;;;;;5046146;28;20550;-77
2022/04/27 04:02:58;;;;;;;9.32;4.00;;;;;;;;;;5047429;28;20437;-77
2022/04/27 04:05:24;;;;;;;7.78;4.05;;;;;;;;;;5046226;28;20122;-77
2022/04/27 04:07:50;;;;;;;8.07;3.70;;;;;;;;;;5039603;28;20041;-77
2022/04/27 04:10:16;;;;;;;12.00;4.72;;;;;;;;;;5037054;28;20035;-77
2022/04/27 04:12:42;;;;;;;8.45;4.07;;;;;;;;;;5044133;28;20052;-77
2022/04/27 04:15:08;;;;;;;9.55;4.05;;;;;;;;;;5041832;28;20033;-77
2022/04/27 04:17:34;;;;;;;8.57;3.70;;;;;;;;;;5047504;28;20029;-77
2022/04/27 04:20:00;;;;;;;8.43;3.85;;;;;;;;;;5044675;28;20040;-77
2022/04/27 04:22:26;;;;;;;11.23;4.55;;;;;;;;;;5045614;28;20067;-77
2022/04/27 04:30:21;;;;;;;10.93;5.03;;;;;;;;;;5040251;28;20047;-77
2022/04/27 04:32:47;;;;;;;8.13;3.67;;;;;;;;;;5050241;28;20479;-77
2022/04/27 04:35:14;;;;;;;7.95;3.85;;;;;;;;;;5045020;28;21995;-77
2022/04/27 04:37:40;;;;;;;13.65;3.85;;;;;;;;;;5039850;28;20021;-77
2022/04/27 04:40:06;;;;;;;9.45;4.78;;;;;;;;;;5036225;28;20036;-77
2022/04/27 04:42:34;;;;;;;7.90;4.72;;;;;;;;;;5037036;28;20060;-76
2022/04/27 04:45:01;;;;;;;8.02;3.50;;;;;;;;;;5027618;28;20037;-77
2022/04/27 04:47:27;;;;;;;11.18;4.85;;;;;;;;;;5039636;28;20439;-77
2022/04/27 04:49:53;;;;;;;7.72;4.10;;;;;;;;;;5038576;28;20029;-77
2022/04/27 04:52:19;;;;;;;8.30;5.03;;;;;;;;;;5040801;28;20040;-77
2022/04/27 04:54:45;;;;;;;7.10;4.00;;;;;;;;;;5036107;28;20045;-77
2022/04/27 04:57:11;;;;;;;9.23;4.70;;;;;;;;;;5035140;28;20032;-77
2022/04/27 04:59:37;;;;;;;7.13;3.67;;;;;;;;;;5035878;28;20029;-77
2022/04/27 05:02:03;;;;;;;8.85;3.67;;;;;;;;;;5042981;28;20502;-77
2022/04/27 05:04:30;;;;;;;10.55;3.88;;;;;;;;;;5046684;28;20025;-77
2022/04/27 05:06:56;;;;;;;10.40;3.90;;;;;;;;;;5042092;28;20044;-76
2022/04/27 05:09:22;;;;;;;14.40;5.00;;;;;;;;;;5044094;28;20050;-77
2022/04/27 05:11:48;;;;;;;11.65;4.85;;;;;;;;;;5038341;28;20060;-77
2022/04/27 05:14:14;;;;;;;11.25;5.78;;;8.50;99.90;;;;;;5039806;28;20077;-77
2022/04/27 05:16:40;;;;;;;11.90;4.15;;;;;;;;;;5036870;28;20079;-77
2022/04/27 05:19:06;;;;;;;9.07;4.00;;;;;;;;;;5047055;28;20039;-78
2022/04/27 05:21:32;;;;;;;8.70;4.40;;;;;;;;;;5039831;28;20961;-77
2022/04/27 05:23:58;;;;;;;8.57;4.25;;;;;;;;;;5048098;28;20035;-77
2022/04/27 05:26:24;;;;;;;7.97;4.13;;;;;;;;;;5047412;28;20025;-77
2022/04/27 05:34:19;;;;;;;7.57;3.70;;;;;;;;;;5046374;28;20063;-77
2022/04/27 05:36:45;;;;;;;7.68;3.88;;;;;;;;;;5043778;28;20029;-78
2022/04/27 05:39:11;;;;;;;13.07;3.35;;;;;;;;;;5044864;28;20171;-77
2022/04/27 05:41:37;;;;;;;5.78;3.15;;;;;;;;;;5046748;28;20021;-77
2022/04/27 05:44:09;;;;;;;6.68;3.92;;;10.70;99.90;;;;;;5047821;28;20048;-77
2022/04/27 05:46:36;;;;;;;3.85;2.45;;;;;;;;;;5042486;28;20053;-77
2022/04/27 05:49:02;;;;;;;5.30;3.08;;;;;;;;;;5051980;28;20037;-77
2022/04/27 05:51:28;;;;;;;5.95;2.65;;;;;;;;;;5042770;28;20021;-77
2022/04/27 05:53:53;;;;;;;4.78;2.47;;;;;;;;;;5042414;28;20049;-77
2022/04/27 05:56:19;;;;;;;7.43;1.70;;;;;;;;;;5052608;28;20521;-78
2022/04/27 05:58:45;;;;;;;3.17;1.45;;;;;;;;;;5051324;28;20349;-78
2022/04/27 06:01:12;;;;;;;4.90;2.17;;;;;;;;;;5046823;28;20040;-77
2022/04/27 06:03:38;;;;;;;3.85;1.55;;;;;;;;;;5052850;28;20143;-77
2022/04/27 06:06:04;;;;;;;4.40;1.67;;;;;;;;;;5049059;28;20021;-78
2022/04/27 06:08:30;;;;;;;3.80;1.80;;;;;;;;;;5048392;28;20021;-77
2022/04/27 06:10:56;;;;;;;4.15;1.65;;;;;;;;;;5049444;28;20105;-77
2022/04/27 06:13:24;;;;;;;6.63;2.40;;;;;;;;;;5045931;28;20049;-77
2022/04/27 06:15:50;;;;;;;5.25;1.55;;;;;;;;;;5048883;28;20083;-78
2022/04/27 06:18:16;;;;;;;3.83;1.75;;;;;;;;;;5053756;28;20033;-77
2022/04/27 06:20:42;;;;;;;4.22;1.40;;;;;;;;;;5045625;28;20029;-78
2022/04/27 06:23:09;;;;;;;6.10;1.85;;;;;;;;;;5053886;28;20443;-77
2022/04/27 06:25:35;;;;;;;5.32;2.40;;;11.70;99.90;;;;;;5048782;28;20511;-79
2022/04/27 06:28:02;;;;;;;3.15;1.80;;;;;;;;;;5051706;28;20036;-77
2022/04/27 06:30:28;;;;;;;4.30;2.28;;;;;;;;;;5044098;28;20317;-77
2022/04/27 06:32:54;;;;;;;4.75;2.10;;;;;;;;;;5048367;28;20408;-78
2022/04/27 06:35:20;;;;;;;5.50;3.13;;;;;;;;;;5052134;28;20048;-78
2022/04/27 06:37:46;;;;;;;8.00;2.15;;;;;;;;;;5050359;28;20044;-78
2022/04/27 06:40:12;;;;;;;6.72;3.47;;;;;;;;;;5050844;28;20226;-78
2022/04/27 06:42:42;;;;;;;5.15;2.90;;;;;;;;;;5052626;28;20044;-78
2022/04/27 06:45:08;;;;;;;7.97;3.05;;;12.40;99.90;;;;;;5049749;28;20083;-78
2022/04/27 06:47:34;;;;;;;6.18;2.90;;;;;;;;;;5054635;28;20089;-78
2022/04/27 06:50:00;;;;;;;4.20;2.22;;;13.50;99.90;;;;;;5045908;28;20071;-77
2022/04/27 06:52:26;;;;;;;4.35;2.13;;;;;;;;;;5055244;28;20070;-78
2022/04/27 06:54:52;;;;;;;4.78;2.33;;;;;;;;;;5051041;28;20049;-78
2022/04/27 06:57:18;;;;;;;5.93;2.72;;;;;;;;;;5050463;28;20030;-78
2022/04/27 06:59:44;;;;;;;7.30;2.72;;;;;;;;;;5049242;28;20044;-77
2022/04/27 07:02:11;;;;;;;5.00;3.17;;;;;;;;;;5052366;28;20059;-79
2022/04/27 07:04:37;;;;;;;5.97;2.78;;;;;;;;;;5052799;28;20175;-77
2022/04/27 07:07:04;;;;;;;4.47;2.28;;;13.40;99.90;;;;;;5051578;28;20017;-78
2022/04/27 07:09:31;;;;;;;5.35;2.10;;;;;;;;;;5046456;28;20021;-79
2022/04/27 07:11:57;;;;;;;4.30;2.55;;;;;;;;;;5041509;28;20481;-78
2022/04/27 07:14:23;;;;;;;4.57;2.60;;;;;;;;;;5049409;28;20044;-79
2022/04/27 07:16:49;;;;;;;4.28;2.38;;;;;;;;;;5052527;28;20033;-78
2022/04/27 07:19:14;;;;;;;4.88;2.25;;;14.00;99.90;;;;;;5050083;28;20082;-79
2022/04/27 07:21:41;;;;;;;4.63;1.75;;;13.80;99.90;;;;;;5052640;28;20013;-79
2022/04/27 07:24:07;;;;;;;4.60;2.10;;;;;;;;;;5051413;28;20032;-78
2022/04/27 07:26:33;;;;;;;4.00;2.17;;;;;;;;;;5048513;28;21780;-78
2022/04/27 07:28:59;;;;;;;4.68;2.53;;;;;;;;;;5053485;28;20035;-78
2022/04/27 07:31:26;;;;;;;3.40;2.40;;;;;;;;;;5053557;28;20029;-77
2022/04/27 07:33:52;;;;;;;4.53;2.38;;;;;;;;;;5042682;28;20032;-78
2022/04/27 07:36:18;;;;;;;4.63;2.10;;;;;;;;;;5047797;28;20033;-77
2022/04/27 07:38:45;;;;;;;4.25;2.15;;;;;;;;;;5053782;28;20020;-78
2022/04/27 07:41:11;;;;;;;4.78;2.42;;;;;;;;;;5050640;28;20115;-78
2022/04/27 07:43:37;;;;;;;6.07;2.47;;;;;;;;;;5049965;28;20201;-78
2022/04/27 07:46:07;;;;;;;3.95;2.53;;;;;;;;;;5047413;28;20029;-78
2022/04/27 07:48:33;;;;;;;5.13;2.33;;;;;;;;;;5049263;28;20025;-78
2022/04/27 07:51:00;;;;;;;5.13;2.33;;;;;;;;;;5046608;28;20036;-78
2022/04/27 07:53:26;;;;;;;4.38;2.25;;;;;;;;;;5051982;28;20067;-78
2022/04/27 07:55:52;;;;;;;4.63;1.83;;;;;;;;;;5050841;28;20037;-79
2022/04/27 07:58:18;;;;;;;3.55;2.35;;;15.40;99.90;;;;;;5053824;28;20059;-79
2022/04/27 08:00:44;;;;;;;3.63;1.60;;;;;;;;;;5051825;28;20033;-79
2022/04/27 08:03:10;;;;;;;4.78;2.33;;;;;;;;;;5054566;28;20025;-78
2022/04/27 08:05:36;;;;;;;5.70;2.55;;;;;;;;;;5053732;28;20048;-79
2022/04/27 08:08:02;;;;;;;3.20;1.88;;;;;;;;;;5047638;28;20025;-78
2022/04/27 08:10:28;;;;;;;4.72;2.08;;;;;;;;;;5046292;28;20041;-79
2022/04/27 08:12:54;;;;;;;4.63;2.33;;;;;;;;;;5051327;28;20028;-79
2022/04/27 08:15:21;;;;;;;4.90;2.63;;;;;;;;;;5052428;28;20132;-78
2022/04/27 08:17:54;;;;;;;5.07;2.80;;;;;;;;;;5045055;28;20029;-78
2022/04/27 08:23:07;;;;;;;4.43;1.73;;;;;;;;;;5053453;28;20051;-79
2022/04/27 08:25:33;;;;;;;4.78;2.47;;;;;;;;;;5055979;28;20035;-79
2022/04/27 08:27:58;;;;;;;6.32;3.05;;;;;;;;;;5050842;28;20143;-80
2022/04/27 08:30:24;;;;;;;9.27;2.25;;;;;;;;;;5042464;28;20074;-80
2022/04/27 08:32:50;;;;;;;3.08;1.90;;;;;;;;;;5048392;28;20048;-78
2022/04/27 08:35:16;;;;;;;2.70;1.70;;;;;;;;;;5050468;28;20045;-79
2022/04/27 08:37:42;;;;;;;4.28;2.20;;;;;;;;;;5056030;28;20032;-80
2022/04/27 08:40:08;;;;;;;3.40;2.17;;;;;;;;;;5046342;28;20420;-77
2022/04/27 08:42:34;;;;;;;3.70;1.95;;;;;;;;;;5044276;28;20077;-79
2022/04/27 08:45:00;;;;;;;3.03;1.95;;;;;;;;;;5052797;28;20029;-79
2022/04/27 08:47:28;;;;;;;4.22;2.22;;;;;;;;;;5044134;28;20039;-79
2022/04/27 08:49:54;;;;;;;5.70;3.15;;;;;;;;;;5049896;28;20035;-78
2022/04/27 08:52:21;;;;;;;4.28;2.65;;;;;;;;;;5044169;28;20063;-79
2022/04/27 08:54:49;;;;;;;5.88;1.98;;;;;;;;;;5054979;28;20037;-79
2022/04/27 08:57:15;;;;;;;5.28;3.28;;;;;;;;;;5050210;28;20555;-79
2022/04/27 08:59:41;;;;;;;6.30;3.28;;;;;;;;;;5054008;28;20052;-79
2022/04/27 09:02:26;;;;;;;5.22;3.00;;;;;;;;;;5056169;28;20021;-80
2022/04/27 09:05:18;;;;;;;5.65;2.92;;;;;;;;;;5057084;28;20047;-79
2022/04/27 09:07:50;;;;;;;6.85;2.75;;;;;;;;;;5058970;28;20037;-79
2022/04/27 09:10:17;;;;;;;15.10;6.32;;;;;;;;;;5051140;28;20047;-79
2022/04/27 09:12:47;;;;;;;8.23;3.60;;;;;;;;;;5057156;28;20028;-79
2022/04/27 09:15:14;;;;;;;8.52;3.67;;;;;;;;;;5056944;28;20060;-79
2022/04/27 09:23:21;;;;;;;4.90;3.00;;;;;;;;;;5055868;28;20032;-79
2022/04/27 09:25:48;;;;;;;5.93;3.22;;;;;;;;;;5055997;28;20216;-79
2022/04/27 09:28:14;;;;;;;6.75;3.55;;;;;;;;;;5056131;28;20060;-79
2022/04/27 09:30:43;;;;;;;6.32;3.05;;;;;;;;;;5043826;28;20037;-79
2022/04/27 09:33:09;;;;;;;6.68;3.30;;;;;;;;;;5053450;28;20103;-79
2022/04/27 09:35:36;;;;;;;6.97;3.80;;;;;;;;;;5059348;28;20512;-78
2022/04/27 09:38:14;;;;;;;6.60;3.97;;;;;;;;;;5052190;28;20105;-79
2022/04/27 09:40:45;;;;;;;7.80;3.90;;;;;;;;;;5052928;28;20420;-79
2022/04/27 09:43:14;;;;;;;8.75;3.67;;;;;;;;;;5052348;28;20381;-79
2022/04/27 09:45:41;;;;;;;4.85;2.72;;;17.30;98.20;;;;;;5050620;28;20060;-78
2022/04/27 09:48:08;;;;;;;6.95;3.50;;;;;;;;;;5052373;28;20047;-79
2022/04/27 09:50:58;;;;;;;5.78;3.40;;;;;;;;;;5050168;28;20045;-77
2022/04/27 09:53:24;;;;;;;5.80;3.08;;;;;;;;;;5047506;28;20033;-79
2022/04/27 09:55:52;;;;;;;6.28;3.65;;;;;;;;;;5052365;28;20048;-79
2022/04/27 09:58:22;;;;;;;6.65;3.08;;;;;;;;;;5050196;28;20117;-79
2022/04/27 10:00:48;;;;;;;5.70;3.58;;;;;;;;;;5050039;28;20166;-80
2022/04/27 10:03:15;;;;;;;5.28;2.90;;;;;;;;;;5045346;28;20055;-80
2022/04/27 10:05:42;;;;;;;5.63;2.63;;;;;;;;;;5054900;28;20025;-80
2022/04/27 10:08:08;;;;;;;7.63;3.30;;;;;;;;;;5052046;28;20025;-79
2022/04/27 10:10:35;;;;;;;5.80;3.28;;;;;;;;;;5054626;28;20112;-79
2022/04/27 10:13:02;;;;;;;4.22;2.47;;;;;;;;;;5046889;28;20025;-78
2022/04/27 10:15:29;;;;;;;5.90;2.95;;;;;;;;;;5045792;28;20048;-78
2022/04/27 10:17:55;;;;;;;4.75;2.75;;;;;;;;;;5054578;28;20029;-79
2022/04/27 10:20:28;;;;;;;5.75;2.90;;;;;;;;;;5054802;28;20057;-78
2022/04/27 10:23:14;;;;;;;5.25;2.63;;;;;;;;;;5053345;28;20020;-78
2022/04/27 10:25:40;;;;;;;5.38;2.80;;;;;;;;;;5058918;28;20025;-79
2022/04/27 10:28:16;;;;;;;6.97;3.47;;;;;;;;;;5060575;28;20040;-78
2022/04/27 10:30:43;;;;;;;6.03;3.13;;;;;;;;;;5054302;28;20625;-79
2022/04/27 10:33:09;;;;;;;4.93;2.42;;;;;;;;;;5067234;28;20029;-79
2022/04/27 10:35:36;;;;;;;6.72;3.15;;;;;;;;;;5057572;28;20041;-78
2022/04/27 10:38:04;;;;;;;4.25;2.78;;;;;;;;;;5057197;28;20031;-79
2022/04/27 10:40:29;;;;;;;7.00;3.33;;;;;;;;;;5053867;28;20051;-79
2022/04/27 10:43:08;;;;;;;8.23;2.78;;;;;;;;;;5057309;28;20495;-79
2022/04/27 10:45:34;;;;;;;5.03;2.80;;;;;;;;;;5050151;28;20036;-78
2022/04/27 10:48:04;;;;;;;5.30;2.33;;;;;;;;;;5058140;28;20036;-79
2022/04/27 10:50:34;;;;;;;5.70;1.75;;;18.60;93.70;;;;;;5058232;28;20021;-79
2022/04/27 10:53:15;;;;;;;3.22;2.15;;;19.30;95.50;;;;;;5057254;28;20098;-79
2022/04/27 10:55:42;;;;;;;5.40;3.03;;;;;;;;;;5056522;28;20040;-80
2022/04/27 10:58:18;;;;;;;5.20;2.30;;;;;;;;;;5049846;28;20021;-79
2022/04/27 11:01:02;;;;;;;8.00;3.10;;;;;;;;;;5054389;28;20033;-79
2022/04/27 11:03:35;;;;;;;4.32;2.47;;;;;;;;;;5048241;28;20740;-78
2022/04/27 11:06:03;;;;;;;5.68;2.38;;;;;;;;;;5048962;28;20025;-78
2022/04/27 11:08:32;;;;;;;4.88;2.72;;;;;;;;;;5054109;28;20051;-78
2022/04/27 11:11:03;;;;;;;4.65;2.38;;;;;;;;;;5046575;28;20067;-78
2022/04/27 11:13:34;;;;;;;4.55;2.38;;;19.10;93.50;;;;;;5055274;28;20492;-79
2022/04/27 11:16:15;;;;;;;4.40;2.13;;;;;;;;;;5055324;28;20068;-79
2022/04/27 11:18:48;;;;;;;7.93;2.42;;;;;;;;;;5053054;28;21077;-78
2022/04/27 11:21:14;;;;;;;4.00;2.00;;;;;;;;;;5052353;28;20562;-80
2022/04/27 11:23:40;;;;;;;5.57;2.90;;;;;;;;;;5053121;28;20025;-79
2022/04/27 11:26:06;;;;;;;3.92;2.45;;;;;;;;;;5049130;28;20025;-78
2022/04/27 11:28:33;;;;;;;5.80;2.92;;;;;;;;;;5046529;28;20056;-78
2022/04/27 11:30:59;;;;;;;4.95;2.78;;;;;;;;;;5047513;28;20029;-79
2022/04/27 11:33:25;;;;;;;3.42;2.10;;;;;;;;;;5043722;28;20059;-78
2022/04/27 11:35:51;;;;;;;3.97;2.33;;;;;;;;;;5055115;28;20037;-79
2022/04/27 11:38:18;;;;;;;4.38;2.08;;;;;;;;;;5051689;28;20029;-79
2022/04/27 11:40:44;;;;;;;3.83;1.52;;;;;;;;;;5055786;28;20028;-79
2022/04/27 11:43:11;;;;;;;4.63;2.15;;;;;;;;;;5045236;28;20029;-77
2022/04/27 11:45:37;;;;;;;3.38;1.55;;;;;;;;;;5046679;28;20036;-78
2022/04/27 11:48:10;;;;;;;3.13;1.70;;;;;;;;;;5048542;28;20031;-78
2022/04/27 11:50:37;;;;;;;3.95;1.80;;;;;;;;;;5049149;28;20689;-79
2022/04/27 11:53:07;;;;;;;7.32;2.08;;;;;;;;;;5049674;28;20040;-78
2022/04/27 11:55:34;;;;;;;2.55;1.80;;;;;;;;;;5046484;28;20430;-78
2022/04/27 11:58:00;;;;;;;3.25;1.90;;;;;;;;;;5052298;28;20029;-79
2022/04/27 12:00:27;;;;;;;4.90;1.58;;;;;;;;;;5051706;28;20033;-78
2022/04/27 12:02:54;;;;;;;5.78;2.10;;;;;;;;;;5049126;28;20051;-78
2022/04/27 12:05:29;;;;;;;3.00;1.55;;;;;;;;;;5048228;28;20093;-79
2022/04/27 12:07:55;;;;;;;4.65;1.77;;;;;;;;;;5049817;28;20033;-79
2022/04/27 12:10:21;;;;;;;3.20;1.58;;;;;;;;;;5042412;28;20440;-79
2022/04/27 12:12:47;;;;;;;3.83;2.00;;;;;;;;;;5042614;28;20116;-81
2022/04/27 12:15:14;;;;;;;3.78;1.73;;;;;;;;;;5039782;28;20237;-79
2022/04/27 12:17:52;;;;;;;6.13;2.08;;;;;;;;;;5046549;28;20036;-78
2022/04/27 12:20:25;;;;;;;3.55;1.88;;;;;;;;;;5040137;28;20034;-78
2022/04/27 12:22:52;;;;;;;4.60;2.13;;;;;;;;;;5048299;28;20116;-79
2022/04/27 12:25:18;;;;;;;3.50;2.00;;;;;;;;;;5041341;28;20044;-79
2022/04/27 12:27:44;;;;;;;4.07;1.55;;;;;;;;;;5052016;28;20079;-78
2022/04/27 12:30:10;;;;;;;5.45;2.13;;;;;;;;;;5044533;28;20501;-79
2022/04/27 12:32:37;;;;;;;3.90;2.03;;;;;;;;;;5054469;28;20025;-80
2022/04/27 12:37:50;;;;;;;3.88;2.15;;;;;;;;;;5043880;28;20076;-78
2022/04/27 12:40:16;;;;;;;2.65;1.65;;;;;;;;;;5043863;28;20598;-77
2022/04/27 12:42:59;;;;;;;4.43;2.17;;;;;;;;;;5043305;28;20037;-77
2022/04/27 12:45:25;;;;;;;3.78;2.10;;;;;;;;;;5041561;28;22185;-79
2022/04/27 12:47:51;;;;;;;5.38;2.00;;;;;;;;;;5048976;28;20030;-79
2022/04/27 12:50:17;;;;;;;5.25;2.42;;;;;;;;;;5053648;28;20025;-79
2022/04/27 12:52:45;;;;;;;4.90;1.95;;;;;;;;;;5051179;28;20155;-79
2022/04/27 12:55:15;;;;;;;4.13;2.15;;;;;;;;;;5050800;28;20033;-79
2022/04/27 12:57:45;;;;;;;4.47;1.85;;;;;;;;;;5052090;28;20029;-79
2022/04/27 13:00:11;;;;;;;3.42;1.90;;;;;;;;;;5051683;28;20029;-78
2022/04/27 13:02:37;;;;;;;3.30;1.75;;;;;;;;;;5048748;28;20079;-78
2022/04/27 13:05:05;;;;;;;4.13;2.33;;;;;;;;;;5054586;28;20088;-79
2022/04/27 13:07:31;;;;;;;4.40;2.88;;;;;;;;;;5053956;28;20112;-78
2022/04/27 13:12:43;;;;;;;5.38;2.50;;;16.70;99.90;;;;;;5049284;28;20036;-79
2022/04/27 13:15:09;;;;;;;5.28;2.50;;;;;;;;;;5046858;28;20052;-79
2022/04/27 13:17:35;;;;;;;4.05;1.83;;;;;;;;;;5046228;28;20112;-80
2022/04/27 13:20:02;;;;;;;3.55;2.17;;;;;;;;;;5047957;28;20123;-80
2022/04/27 13:22:28;;;;;;;4.85;2.05;;;;;;;;;;5045356;28;20029;-81
2022/04/27 13:24:54;;;;;;;4.05;2.13;;;;;;;;;;5053295;28;20059;-79
2022/04/27 13:27:23;;;;;;;4.88;2.08;;;;;;;;;;5053406;28;20121;-80
2022/04/27 13:29:49;;;;;;;3.63;1.70;;;;;;;;;;5052119;28;20468;-80
2022/04/27 13:32:15;;;;;;;4.07;2.30;;;;;;;;;;5042660;28;20039;-79
2022/04/27 13:34:41;;;;;;;3.53;2.10;;;;;;;;;;5057341;28;20029;-79
2022/04/27 13:37:07;;;;;;;4.78;2.50;;;;;;;;;;5049918;28;20499;-80
2022/04/27 13:39:33;;;;;;;2.70;1.42;;;;;;;;;;5050768;28;20025;-80
2022/04/27 13:41:59;;;;;;;4.85;1.80;;;;;;;;;;5046901;28;20033;-79
2022/04/27 13:44:25;;;;;;;3.45;1.75;;;;;;;;;;5050868;28;20587;-80
2022/04/27 13:46:51;;;;;;;5.53;1.77;;;;;;;;;;5054895;28;20029;-80
2022/04/27 13:49:19;;;;;;;3.65;2.13;;;;;;;;;;5051618;28;20032;-80
2022/04/27 13:51:46;;;;;;;3.15;1.65;;;;;;;;;;5052226;28;20564;-79
2022/04/27 13:54:14;;;;;;;4.85;2.15;;;;;;;;;;5052459;28;20033;-79
2022/04/27 13:56:40;;;;;;;3.20;1.75;;;;;;;;;;5049690;28;20030;-80
2022/04/27 13:59:06;;;;;;;5.05;2.80;;;;;;;;;;5055294;28;20441;-79
2022/04/27 14:01:32;;;;;;;2.95;2.08;;;;;;;;;;5055617;28;20739;-80
2022/04/27 14:03:58;;;;;;;2.70;1.40;;;;;;;;;;5055974;28;20041;-80
2022/04/27 14:06:24;;;;;;;2.45;1.65;;;;;;;;;;5058867;28;20025;-80
2022/04/27 14:08:51;;;;;;;2.58;1.35;;;;;;;;;;5052150;28;20072;-79
2022/04/27 14:14:02;;;;;;;4.68;1.73;;;;;;;;;;5054023;28;20075;-79
2022/04/27 14:19:12;;;;;;;3.58;2.13;;;;;;;;;;5050917;28;20791;-80
2022/04/27 14:21:38;;;;;;;3.33;2.17;;;;;;;;;;5060374;28;20029;-80
2022/04/27 14:24:05;;;;;;;3.50;1.42;;;;;;;;;;5050970;28;20020;-80
2022/04/27 14:26:31;;;;;;;3.30;1.35;;;;;;;;;;5046083;28;20047;-78
2022/04/27 14:28:57;;;;;;;4.57;1.85;;;;;;;;;;5058990;28;20461;-79
2022/04/27 14:31:23;;;;;;;3.55;1.88;;;;;;;;;;5059350;28;20033;-80
2022/04/27 14:33:49;;;;;;;3.10;1.58;;;;;;;;;;5055594;28;20017;-79
2022/04/27 14:36:15;;;;;;;5.10;1.80;;;;;;;;;;5052673;28;20037;-81
2022/04/27 14:38:41;;;;;;;4.78;2.10;;;;;;;;;;5056978;28;20071;-81
2022/04/27 14:41:07;;;;;;;4.63;1.60;;;;;;;;;;5053072;28;20016;-79
2022/04/27 14:43:33;;;;;;;4.07;2.10;;;;;;;;;;5057622;28;20057;-81
2022/04/27 14:45:59;;;;;;;4.68;2.53;;;;;;;;;;5032514;28;20567;-79
2022/04/27 14:48:25;;;;;;;3.17;1.70;;;;;;;;;;5036137;28;20054;-78
2022/04/27 14:50:50;;;;;;;4.32;1.88;;;;;;;;;;5033671;28;20032;-78
2022/04/27 14:53:16;;;;;;;4.63;1.55;;;;;;;;;;5046328;28;20125;-78
2022/04/27 14:55:43;;;;;;;4.45;1.98;;;18.10;84.90;;;;;;5046575;28;20037;-79
2022/04/27 14:58:09;;;;;;;2.33;1.33;;;;;;;;;;5049608;28;20021;-79
2022/04/27 15:00:36;;;;;;;4.75;1.55;;;;;;;;;;5040591;28;20108;-79
2022/04/27 15:03:03;;;;;;;4.80;1.83;;;;;;;;;;5047984;28;20036;-80
2022/04/27 15:05:29;;;;;;;2.58;1.50;;;;;;;;;;5051721;28;20033;-80
2022/04/27 15:07:55;;;;;;;2.80;1.48;;;;;;;;;;5049961;28;20029;-81
2022/04/27 15:10:21;;;;;;;4.07;1.67;;;;;;;;;;5042293;28;20056;-80